Time;durP1;ratioP1;P1;durP2;ratioP2;P2;SDS_P1;SDS_P2;PMS_P1;PMS_P2;Temp;Humidity;BMP_temperature;BMP_pressure;BME280_temperature;BME280_humidity;BME280_pressure;Samples;Min_cycle;Max_cycle;Signal;HPM_P1;HPM_P2
2022/04/18 00:01:34;;;;;;;9.00;6.23;;;11.70;49.10;;;;;;5023675;28;20198;-36
2022/04/18 00:04:01;;;;;;;10.50;6.47;;;11.60;49.40;;;;;;5030437;28;21524;-40
2022/04/18 00:06:26;;;;;;;7.67;6.23;;;11.60;49.20;;;;;;5030910;28;20429;-37
2022/04/18 00:08:52;;;;;;;6.23;5.63;;;11.50;48.80;;;;;;5029859;28;20429;-40
2022/04/18 00:11:18;;;;;;;6.50;5.30;;;11.50;48.80;;;;;;5030893;28;20257;-41
2022/04/18 00:13:43;;;;;;;7.33;5.53;;;11.50;49.00;;;;;;5031144;28;20213;-35
2022/04/18 00:16:09;;;;;;;7.00;5.40;;;11.50;49.20;;;;;;5023093;28;20242;-41
2022/04/18 00:18:34;;;;;;;6.20;5.40;;;11.50;48.40;;;;;;5027458;28;20239;-41
2022/04/18 00:21:00;;;;;;;7.07;5.93;;;11.60;48.70;;;;;;5030100;28;20214;-39
2022/04/18 00:23:26;;;;;;;8.37;5.80;;;11.40;48.40;;;;;;5030874;28;20194;-41
2022/04/18 00:25:51;;;;;;;5.80;5.00;;;11.30;49.20;;;;;;5044244;28;20181;-38
2022/04/18 00:28:17;;;;;;;7.80;6.47;;;11.30;48.30;;;;;;5050924;28;20182;-39
2022/04/18 00:30:43;;;;;;;7.17;6.20;;;11.20;49.10;;;;;;5043849;28;20274;-40
2022/04/18 00:33:09;;;;;;;9.37;5.90;;;11.20;49.60;;;;;;5026677;28;20571;-36
2022/04/18 00:35:35;;;;;;;5.07;4.47;;;11.10;50.30;;;;;;5030423;28;20988;-39
2022/04/18 00:38:02;;;;;;;6.43;5.70;;;11.10;49.30;;;;;;5030690;28;20194;-40
2022/04/18 00:40:27;;;;;;;5.87;5.27;;;11.20;49.50;;;;;;5029932;28;20467;-38
2022/04/18 00:43:04;;;;;;;6.30;5.47;;;11.20;49.80;;;;;;5030768;28;20429;-38
2022/04/18 00:45:30;;;;;;;6.47;5.83;;;11.10;49.90;;;;;;5029361;28;20190;-39
2022/04/18 00:47:56;;;;;;;11.10;5.67;;;11.00;50.20;;;;;;5022019;28;20448;-40
2022/04/18 00:50:22;;;;;;;6.07;5.47;;;11.10;50.70;;;;;;5029780;28;20183;-41
2022/04/18 00:52:53;;;;;;;6.90;5.43;;;10.80;50.70;;;;;;5030551;28;20196;-39
2022/04/18 00:55:20;;;;;;;6.00;5.00;;;10.70;51.20;;;;;;5030355;28;20514;-39
2022/04/18 00:57:48;;;;;;;7.27;4.70;;;10.70;51.60;;;;;;5030469;28;20963;-39
2022/04/18 01:00:14;;;;;;;4.73;4.27;;;10.50;52.00;;;;;;5029633;28;20982;-38
2022/04/18 01:02:40;;;;;;;6.40;4.97;;;10.50;51.40;;;;;;5021278;28;20510;-40
2022/04/18 01:05:07;;;;;;;4.70;4.20;;;10.60;51.80;;;;;;5028382;28;20562;-39
2022/04/18 01:07:34;;;;;;;5.27;4.43;;;10.70;51.80;;;;;;5028923;28;20414;-34
2022/04/18 01:10:01;;;;;;;4.93;4.23;;;10.30;51.60;;;;;;5029524;28;21221;-34
2022/04/18 01:12:26;;;;;;;6.80;4.27;;;10.40;51.50;;;;;;5028651;28;20943;-39
2022/04/18 01:14:52;;;;;;;5.13;4.00;;;10.40;51.70;;;;;;5030067;28;20428;-41
2022/04/18 01:17:18;;;;;;;4.50;3.53;;;10.30;52.00;;;;;;5021409;28;20213;-38
2022/04/18 01:19:44;;;;;;;5.70;3.73;;;10.40;51.80;;;;;;5029319;28;20295;-40
2022/04/18 01:22:10;;;;;;;4.03;3.63;;;10.40;51.80;;;;;;5028533;28;20178;-40
2022/04/18 01:30:06;;;;;;;3.50;3.20;;;10.40;51.90;;;;;;5045358;28;20441;-41
2022/04/18 01:32:32;;;;;;;4.07;3.67;;;10.60;51.70;;;;;;5017765;28;20494;-32
2022/04/18 01:34:58;;;;;;;3.73;3.40;;;10.20;52.00;;;;;;5029508;28;20738;-38
2022/04/18 01:37:25;;;;;;;3.83;3.53;;;10.30;51.80;;;;;;5028782;28;20549;-39
2022/04/18 01:39:51;;;;;;;3.20;2.90;;;10.30;51.80;;;;;;5044070;28;20464;-38
2022/04/18 01:42:17;;;;;;;4.60;3.53;;;10.30;52.00;;;;;;5029263;28;20440;-41
2022/04/18 01:44:42;;;;;;;4.10;2.93;;;10.30;52.40;;;;;;5029616;28;20317;-37
2022/04/18 01:47:08;;;;;;;3.40;3.10;;;10.60;52.80;;;;;;5021487;28;20217;-39
2022/04/18 01:49:34;;;;;;;5.40;3.17;;;10.30;51.90;;;;;;5028861;28;20274;-40
2022/04/18 01:52:00;;;;;;;3.07;2.77;;;10.40;52.30;;;;;;5029264;28;20421;-41
2022/04/18 01:54:25;;;;;;;4.60;3.40;;;10.30;52.50;;;;;;5027838;28;20229;-35
2022/04/18 01:56:51;;;;;;;3.70;2.80;;;10.30;52.60;;;;;;5028352;28;20201;-41
2022/04/18 01:59:17;;;;;;;4.77;3.13;;;10.20;52.70;;;;;;5029155;28;20186;-40
2022/04/18 02:01:42;;;;;;;3.90;3.43;;;10.30;52.90;;;;;;5023623;28;20673;-41
2022/04/18 02:04:08;;;;;;;4.93;3.00;;;10.20;53.00;;;;;;5022472;28;20201;-39
2022/04/18 02:06:34;;;;;;;3.43;3.13;;;10.30;53.00;;;;;;5030318;28;20187;-38
2022/04/18 02:09:00;;;;;;;3.20;2.90;;;10.20;53.30;;;;;;5048927;28;20261;-41
2022/04/18 02:11:26;;;;;;;2.90;2.70;;;10.10;53.70;;;;;;5047271;28;20428;-38
2022/04/18 02:13:52;;;;;;;4.37;2.97;;;10.10;53.90;;;;;;5040659;28;20448;-40
2022/04/18 02:16:19;;;;;;;3.70;3.40;;;10.10;53.70;;;;;;5025642;28;20518;-36
2022/04/18 02:18:45;;;;;;;3.77;3.00;;;10.00;54.10;;;;;;5020680;28;20428;-38
2022/04/18 02:21:12;;;;;;;3.73;3.00;;;10.00;54.10;;;;;;5024509;28;21240;-38
2022/04/18 02:23:38;;;;;;;3.00;2.50;;;9.90;54.60;;;;;;5033454;28;20562;-41
2022/04/18 02:26:04;;;;;;;2.97;2.60;;;10.00;54.10;;;;;;5034035;28;20450;-39
2022/04/18 02:28:31;;;;;;;3.80;2.70;;;9.90;55.20;;;;;;5049150;28;20423;-40
2022/04/18 02:30:59;;;;;;;3.53;2.93;;;9.80;55.20;;;;;;5048324;28;20201;-39
2022/04/18 02:33:25;;;;;;;5.47;3.17;;;10.10;54.60;;;;;;5024235;28;20440;-38
2022/04/18 02:35:51;;;;;;;3.63;2.70;;;10.00;54.70;;;;;;5028695;28;20413;-39
2022/04/18 02:38:17;;;;;;;4.17;3.10;;;9.80;55.40;;;;;;5028855;28;20423;-40
2022/04/18 02:40:44;;;;;;;2.53;2.33;;;10.00;54.70;;;;;;5028061;28;20202;-39
2022/04/18 02:43:09;;;;;;;4.60;3.07;;;10.10;55.10;;;;;;5028936;28;20180;-38
2022/04/18 02:45:35;;;;;;;2.63;2.43;;;9.90;56.00;;;;;;5026964;28;20421;-40
2022/04/18 02:48:01;;;;;;;3.50;2.73;;;9.90;56.10;;;;;;5021229;28;20187;-36
2022/04/18 02:50:27;;;;;;;3.67;2.60;;;10.00;55.60;;;;;;5032128;28;20431;-40
2022/04/18 02:52:53;;;;;;;2.70;2.20;;;9.80;56.40;;;;;;5032456;28;20429;-38
2022/04/18 02:55:19;;;;;;;2.83;2.63;;;9.80;56.90;;;;;;5032662;28;20206;-36
2022/04/18 02:57:45;;;;;;;2.30;2.10;;;9.80;56.90;;;;;;5032467;28;20441;-39
2022/04/18 03:00:12;;;;;;;2.80;2.60;;;9.90;56.90;;;;;;5032003;28;20548;-39
2022/04/18 03:02:39;;;;;;;5.33;3.20;;;10.00;56.50;;;;;;5024073;28;20729;-41
2022/04/18 03:05:06;;;;;;;2.87;2.50;;;9.70;57.20;;;;;;5030800;28;21312;-37
2022/04/18 03:07:33;;;;;;;3.53;2.63;;;9.90;57.60;;;;;;5032271;28;20455;-41
2022/04/18 03:09:59;;;;;;;3.50;2.60;;;9.70;57.60;;;;;;5031725;28;20420;-38
2022/04/18 03:12:25;;;;;;;3.03;2.73;;;9.70;57.30;;;;;;5031911;28;20916;-41
2022/04/18 03:14:52;;;;;;;3.30;2.63;;;9.80;57.70;;;;;;5032251;28;20780;-35
2022/04/18 03:17:18;;;;;;;3.63;2.60;;;9.60;57.80;;;;;;5023963;28;20469;-38
2022/04/18 03:19:44;;;;;;;3.63;2.57;;;9.80;58.00;;;;;;5027797;28;20493;-38
2022/04/18 03:22:09;;;;;;;3.50;2.60;;;9.60;58.30;;;;;;5032012;28;20506;-40
2022/04/18 03:24:35;;;;;;;4.20;3.10;;;9.80;58.20;;;;;;5035529;28;20190;-41
2022/04/18 03:27:02;;;;;;;3.60;2.60;;;9.80;58.30;;;;;;5046078;28;20719;-38
2022/04/18 03:29:28;;;;;;;3.40;3.10;;;9.60;58.40;;;;;;5047900;28;20449;-38
2022/04/18 03:31:54;;;;;;;3.07;2.63;;;9.70;58.90;;;;;;5029221;28;20417;-37
2022/04/18 03:34:20;;;;;;;4.73;3.40;;;9.60;59.00;;;;;;5028379;28;20440;-39
2022/04/18 03:42:15;;;;;;;3.50;2.70;;;9.70;59.40;;;;;;5031886;28;20421;-40
2022/04/18 03:44:46;;;;;;;3.63;2.40;;;10.00;59.10;;;;;;5031650;28;20432;-41
2022/04/18 03:47:14;;;;;;;4.33;2.73;;;9.80;60.00;;;;;;5027660;28;20171;-40
2022/04/18 03:49:40;;;;;;;3.33;3.03;;;9.80;60.00;;;;;;5020566;28;20429;-41
2022/04/18 03:52:07;;;;;;;3.20;2.83;;;9.70;59.90;;;;;;5031441;28;20457;-36
2022/04/18 03:54:36;;;;;;;3.53;2.67;;;9.90;60.40;;;;;;5030467;28;20871;-41
2022/04/18 03:57:03;;;;;;;3.20;2.80;;;9.80;60.30;;;;;;5031381;28;20460;-40
2022/04/18 03:59:29;;;;;;;3.17;2.27;;;9.80;60.30;;;;;;5030797;28;20907;-36
2022/04/18 04:01:55;;;;;;;4.23;2.90;;;10.00;59.50;;;;;;5028835;28;20594;-40
2022/04/18 04:04:21;;;;;;;3.77;2.90;;;9.80;60.30;;;;;;5031828;28;20439;-36
2022/04/18 04:06:47;;;;;;;2.80;2.40;;;10.00;59.50;;;;;;5031178;28;20421;-35
2022/04/18 04:09:13;;;;;;;3.43;2.60;;;9.90;60.70;;;;;;5031458;28;20996;-39
2022/04/18 04:11:38;;;;;;;3.73;2.70;;;10.00;60.00;;;;;;5030671;28;20190;-40
2022/04/18 04:14:04;;;;;;;3.20;2.90;;;9.90;61.30;;;;;;5031343;28;20646;-40
2022/04/18 04:16:30;;;;;;;3.00;2.70;;;10.00;59.90;;;;;;5030974;28;20837;-41
2022/04/18 04:18:56;;;;;;;3.30;2.77;;;9.90;60.80;;;;;;5018214;28;20278;-38
2022/04/18 04:21:22;;;;;;;8.33;2.97;;;10.00;59.80;;;;;;5030325;28;21026;-40
2022/04/18 04:23:47;;;;;;;3.03;2.73;;;10.00;60.20;;;;;;5031127;28;20745;-40
2022/04/18 04:26:13;;;;;;;3.13;2.70;;;10.10;60.80;;;;;;5044625;28;20331;-38
2022/04/18 04:28:39;;;;;;;4.30;3.57;;;9.90;61.80;;;;;;5050815;28;20636;-40
2022/04/18 04:31:05;;;;;;;3.40;2.60;;;9.90;61.90;;;;;;5033226;28;21022;-41
2022/04/18 04:33:33;;;;;;;2.43;2.23;;;9.90;62.00;;;;;;5022559;28;20189;-38
2022/04/18 04:36:00;;;;;;;5.20;2.73;;;9.90;62.90;;;;;;5029134;28;20551;-39
2022/04/18 04:38:26;;;;;;;2.93;2.60;;;9.90;63.00;;;;;;5030795;28;20478;-40
2022/04/18 04:40:53;;;;;;;2.93;2.63;;;10.00;62.80;;;;;;5030071;28;20453;-39
2022/04/18 04:43:20;;;;;;;3.60;2.67;;;9.90;64.90;;;;;;5030510;28;20449;-40
2022/04/18 04:45:46;;;;;;;5.33;3.00;;;9.90;66.80;;;;;;5030892;28;20417;-36
2022/04/18 04:48:12;;;;;;;4.20;2.80;;;9.80;66.10;;;;;;5022976;28;20440;-38
2022/04/18 04:50:39;;;;;;;4.27;2.90;;;9.80;65.10;;;;;;5026893;28;20421;-38
2022/04/18 04:53:05;;;;;;;4.67;2.80;;;9.90;66.10;;;;;;5029977;28;20431;-40
2022/04/18 04:55:31;;;;;;;3.13;2.50;;;9.90;65.80;;;;;;5030411;28;20447;-41
2022/04/18 04:57:57;;;;;;;5.63;2.17;;;10.20;64.40;;;;;;5029546;28;20448;-39
2022/04/18 05:00:24;;;;;;;3.20;2.33;;;9.90;65.80;;;;;;5029640;28;20460;-39
2022/04/18 05:02:50;;;;;;;3.23;2.80;;;9.90;65.90;;;;;;5026340;28;20190;-41
2022/04/18 05:05:16;;;;;;;3.60;2.67;;;10.10;64.70;;;;;;5024713;28;20448;-37
2022/04/18 05:07:41;;;;;;;4.23;2.67;;;9.90;67.50;;;;;;5030373;28;20645;-38
2022/04/18 05:10:07;;;;;;;2.30;2.10;;;10.00;65.50;;;;;;5029411;28;20260;-40
2022/04/18 05:12:33;;;;;;;3.00;2.30;;;9.90;65.60;;;;;;5028575;28;20595;-35
2022/04/18 05:15:03;;;;;;;3.40;2.73;;;9.80;64.90;;;;;;5030052;28;20428;-37
2022/04/18 05:17:29;;;;;;;5.43;2.97;;;10.00;63.30;;;;;;5030377;28;20201;-37
2022/04/18 05:19:55;;;;;;;4.03;2.30;;;10.10;63.40;;;;;;5018355;28;20469;-40
2022/04/18 05:22:20;;;;;;;2.90;2.43;;;10.20;62.80;;;;;;5030001;28;20421;-34
2022/04/18 05:24:46;;;;;;;2.90;2.70;;;10.20;62.80;;;;;;5033796;28;20273;-39
2022/04/18 05:27:15;;;;;;;3.63;3.03;;;10.20;62.90;;;;;;5038671;28;20281;-36
2022/04/18 05:29:42;;;;;;;4.60;2.73;;;10.20;62.90;;;;;;5044225;28;20252;-41
2022/04/18 05:32:08;;;;;;;3.37;2.70;;;10.40;65.80;;;;;;5029701;28;20421;-39
2022/04/18 05:34:34;;;;;;;2.80;2.60;;;9.90;68.70;;;;;;5020134;28;20433;-40
2022/04/18 05:36:59;;;;;;;2.93;2.33;;;9.80;70.70;;;;;;5029699;28;20897;-40
2022/04/18 05:39:26;;;;;;;3.27;2.70;;;9.80;72.00;;;;;;5029590;28;20428;-38
2022/04/18 05:41:51;;;;;;;3.00;2.40;;;10.00;73.80;;;;;;5028990;28;20189;-39
2022/04/18 05:44:17;;;;;;;2.80;2.60;;;10.00;72.00;;;;;;5029636;28;20459;-38
2022/04/18 05:46:43;;;;;;;2.70;2.30;;;10.40;69.00;;;;;;5029524;28;20924;-40
2022/04/18 05:49:09;;;;;;;2.63;2.40;;;10.60;67.10;;;;;;5019814;28;20437;-41
2022/04/18 05:51:37;;;;;;;2.30;2.10;;;10.90;64.70;;;;;;5024019;28;20608;-39
2022/04/18 05:54:03;;;;;;;5.60;2.30;;;11.20;64.00;;;;;;5029197;28;20507;-39
2022/04/18 05:56:32;;;;;;;4.07;2.37;;;11.40;63.70;;;;;;5029394;28;20483;-37
2022/04/18 05:58:58;;;;;;;5.37;2.70;;;11.70;63.00;;;;;;5029108;28;20437;-41
2022/04/18 06:01:24;;;;;;;3.90;2.60;;;12.00;63.10;;;;;;5034744;28;20548;-39
2022/04/18 06:03:50;;;;;;;3.47;2.30;;;12.30;61.60;;;;;;5022602;28;20430;-41
2022/04/18 06:06:16;;;;;;;3.43;3.00;;;12.50;60.40;;;;;;5022565;28;20409;-39
2022/04/18 06:08:42;;;;;;;2.20;2.00;;;12.70;59.60;;;;;;5028306;28;20193;-38
2022/04/18 06:11:08;;;;;;;4.33;2.40;;;12.80;59.00;;;;;;5029078;28;20504;-36
2022/04/18 06:13:34;;;;;;;2.40;2.00;;;12.90;58.60;;;;;;5028837;28;20524;-39
2022/04/18 06:16:00;;;;;;;3.03;2.50;;;13.10;58.60;;;;;;5029321;28;20216;-39
2022/04/18 06:18:27;;;;;;;2.77;2.50;;;13.20;58.90;;;;;;5024594;28;20445;-36
2022/04/18 06:20:53;;;;;;;4.43;2.63;;;13.20;60.90;;;;;;5019453;28;20461;-39
2022/04/18 06:23:19;;;;;;;3.70;3.00;;;13.20;59.90;;;;;;5020810;28;20503;-35
2022/04/18 06:25:45;;;;;;;3.03;2.50;;;13.30;58.00;;;;;;5029198;28;20225;-37
2022/04/18 06:28:12;;;;;;;3.53;2.27;;;13.30;58.10;;;;;;5029104;28;20252;-37
2022/04/18 06:30:38;;;;;;;3.10;2.80;;;13.50;57.40;;;;;;5028287;28;20440;-39
2022/04/18 06:33:05;;;;;;;3.03;2.77;;;13.70;57.40;;;;;;5028774;28;20499;-40
2022/04/18 06:35:30;;;;;;;3.17;2.87;;;13.90;56.80;;;;;;5023131;28;20441;-38
2022/04/18 06:37:56;;;;;;;3.10;2.70;;;14.10;56.90;;;;;;5040781;28;20428;-38
2022/04/18 06:40:22;;;;;;;4.80;2.80;;;14.30;55.50;;;;;;5028086;28;20214;-36
2022/04/18 06:42:49;;;;;;;2.80;2.53;;;14.40;55.30;;;;;;5028942;28;20442;-41
2022/04/18 06:45:15;;;;;;;2.57;2.37;;;14.50;55.50;;;;;;5028781;28;20191;-40
2022/04/18 06:47:40;;;;;;;4.27;2.60;;;14.70;55.50;;;;;;5028861;28;21046;-39
2022/04/18 06:50:10;;;;;;;5.47;3.10;;;14.80;55.30;;;;;;5023223;28;20186;-40
2022/04/18 06:52:49;;;;;;;3.37;3.00;;;15.00;55.60;;;;;;5025960;28;20673;-37
2022/04/18 06:55:16;;;;;;;4.40;2.90;;;15.10;55.30;;;;;;5029389;28;20414;-41
2022/04/18 06:57:42;;;;;;;4.70;2.70;;;15.10;53.80;;;;;;5039075;28;20441;-38
2022/04/18 07:00:09;;;;;;;4.27;3.07;;;15.30;53.80;;;;;;5042879;28;20447;-38
2022/04/18 07:02:34;;;;;;;3.93;3.03;;;15.40;52.80;;;;;;5047810;28;20498;-36
2022/04/18 07:05:01;;;;;;;3.53;2.53;;;15.30;53.60;;;;;;5022214;28;20448;-38
2022/04/18 07:07:27;;;;;;;4.73;2.90;;;15.20;53.70;;;;;;5027962;28;20536;-33
2022/04/18 07:09:52;;;;;;;2.83;2.63;;;15.30;54.00;;;;;;5025593;28;20981;-36
2022/04/18 07:12:22;;;;;;;2.80;2.50;;;15.40;53.90;;;;;;5028069;28;20420;-36
2022/04/18 07:14:49;;;;;;;2.80;2.27;;;15.50;53.90;;;;;;5027989;28;20182;-37
2022/04/18 07:17:14;;;;;;;2.67;2.43;;;15.50;53.50;;;;;;5027236;28;20409;-34
2022/04/18 07:19:40;;;;;;;2.97;2.63;;;15.40;53.70;;;;;;5018293;28;20453;-35
2022/04/18 07:22:06;;;;;;;3.30;2.70;;;15.20;55.60;;;;;;5025541;28;20186;-32
2022/04/18 07:24:32;;;;;;;2.83;2.53;;;15.00;54.50;;;;;;5027876;28;20208;-35
2022/04/18 07:27:00;;;;;;;3.63;2.60;;;14.90;54.00;;;;;;5021027;28;21236;-35
2022/04/18 07:29:27;;;;;;;3.27;2.70;;;14.90;55.00;;;;;;5026731;28;20421;-36
2022/04/18 07:31:54;;;;;;;3.63;3.00;;;14.90;54.20;;;;;;5027275;28;20495;-39
2022/04/18 07:34:20;;;;;;;4.87;2.67;;;14.80;54.70;;;;;;5021398;28;20437;-38
2022/04/18 07:36:46;;;;;;;3.87;2.80;;;14.80;54.40;;;;;;5029366;28;20405;-39
2022/04/18 07:39:12;;;;;;;3.07;2.77;;;14.80;55.20;;;;;;5036924;28;20933;-41
2022/04/18 07:41:37;;;;;;;6.13;3.03;;;14.80;55.20;;;;;;5050689;28;20220;-41
2022/04/18 07:44:03;;;;;;;3.70;3.30;;;14.70;54.40;;;;;;5037744;28;20182;-38
2022/04/18 07:46:30;;;;;;;5.70;3.30;;;14.70;54.60;;;;;;5051196;28;20193;-40
2022/04/18 07:48:56;;;;;;;3.53;2.43;;;14.50;54.40;;;;;;5046371;28;20412;-39
2022/04/18 07:51:32;;;;;;;3.47;2.83;;;14.40;54.80;;;;;;5033693;28;20425;-34
2022/04/18 07:53:59;;;;;;;5.67;2.90;;;14.50;55.30;;;;;;5030899;28;21143;-39
2022/04/18 07:56:25;;;;;;;2.67;2.47;;;14.70;55.00;;;;;;5026453;28;20457;-40
2022/04/18 07:58:52;;;;;;;3.97;3.03;;;14.80;54.90;;;;;;5029235;28;20445;-39
2022/04/18 08:01:19;;;;;;;3.10;2.67;;;14.90;55.00;;;;;;5029711;28;20533;-39
2022/04/18 08:03:46;;;;;;;4.20;3.20;;;14.90;53.80;;;;;;5029505;28;20471;-38
2022/04/18 08:06:12;;;;;;;5.50;2.80;;;15.00;54.10;;;;;;5022263;28;20426;-41
2022/04/18 08:08:38;;;;;;;4.30;3.20;;;14.90;55.10;;;;;;5030886;28;20846;-41
2022/04/18 08:11:04;;;;;;;3.60;2.80;;;14.90;54.70;;;;;;5029427;28;20455;-40
2022/04/18 08:13:30;;;;;;;2.83;2.60;;;14.90;54.90;;;;;;5030582;28;20444;-39
2022/04/18 08:15:56;;;;;;;4.27;3.03;;;15.00;54.80;;;;;;5030122;28;20498;-33
2022/04/18 08:18:22;;;;;;;3.20;2.90;;;14.90;54.00;;;;;;5030489;28;20416;-38
2022/04/18 08:20:49;;;;;;;3.03;2.73;;;14.90;54.40;;;;;;5025586;28;20464;-37
2022/04/18 08:23:14;;;;;;;2.80;2.47;;;14.90;55.60;;;;;;5030488;28;20420;-41
2022/04/18 08:25:40;;;;;;;3.10;2.80;;;15.00;54.70;;;;;;5029712;28;20446;-37
2022/04/18 08:28:07;;;;;;;2.93;2.60;;;15.00;55.50;;;;;;5028359;28;20187;-38
2022/04/18 08:30:33;;;;;;;4.13;3.27;;;14.90;55.40;;;;;;5029135;28;20258;-34
2022/04/18 08:32:59;;;;;;;3.77;3.10;;;15.00;54.50;;;;;;5031857;28;21237;-38
2022/04/18 08:35:26;;;;;;;3.20;2.60;;;14.90;53.90;;;;;;5021312;28;20442;-38
2022/04/18 08:37:51;;;;;;;3.10;2.80;;;14.90;53.80;;;;;;5030177;28;20908;-39
2022/04/18 08:40:18;;;;;;;5.00;2.90;;;14.90;53.10;;;;;;5029419;28;20460;-38
2022/04/18 08:42:44;;;;;;;3.83;3.00;;;14.90;53.80;;;;;;5029853;28;20240;-41
2022/04/18 08:45:13;;;;;;;4.07;3.10;;;14.90;54.70;;;;;;5027224;28;20859;-33
2022/04/18 08:53:13;;;;;;;3.67;3.30;;;15.00;53.90;;;;;;5029573;28;20839;-41
2022/04/18 08:55:40;;;;;;;2.87;2.60;;;15.00;54.70;;;;;;5028665;28;20857;-41
2022/04/18 08:58:06;;;;;;;3.10;2.80;;;15.00;54.40;;;;;;5026055;28;20495;-41
2022/04/18 09:00:34;;;;;;;4.17;3.13;;;15.10;55.00;;;;;;5023098;28;21046;-39
2022/04/18 09:02:59;;;;;;;3.10;2.80;;;15.20;54.60;;;;;;5027536;28;20274;-39
2022/04/18 09:05:25;;;;;;;4.10;3.00;;;15.40;53.80;;;;;;5019822;28;20524;-33
2022/04/18 09:07:59;;;;;;;3.60;2.73;;;15.50;53.00;;;;;;5026571;28;20179;-41
2022/04/18 09:10:25;;;;;;;4.90;2.77;;;15.50;51.80;;;;;;5023654;28;21082;-37
2022/04/18 09:12:51;;;;;;;3.40;2.77;;;15.50;52.20;;;;;;5024437;28;20425;-39
2022/04/18 09:15:39;;;;;;;3.20;2.80;;;15.60;52.40;;;;;;5029009;28;20418;-41
2022/04/18 09:18:10;;;;;;;3.13;2.83;;;15.80;52.50;;;;;;5023073;28;20951;-36
2022/04/18 09:21:01;;;;;;;3.60;2.90;;;16.00;53.40;;;;;;5014635;28;20469;-38
2022/04/18 09:23:30;;;;;;;2.60;2.40;;;16.10;51.00;;;;;;5027205;28;20420;-40
2022/04/18 09:26:00;;;;;;;4.30;2.90;;;16.20;51.60;;;;;;5029215;28;20429;-41
2022/04/18 09:28:42;;;;;;;3.53;3.00;;;16.40;52.20;;;;;;5019920;28;20524;-38
2022/04/18 09:31:11;;;;;;;3.00;2.40;;;16.50;53.60;;;;;;5021858;28;20441;-38
2022/04/18 09:33:42;;;;;;;2.77;2.53;;;16.80;51.90;;;;;;5028220;28;20792;-40
2022/04/18 09:36:09;;;;;;;3.03;2.73;;;17.00;51.00;;;;;;5017473;28;20429;-39
2022/04/18 09:38:38;;;;;;;2.80;2.60;;;17.20;48.40;;;;;;5028933;28;20432;-38
2022/04/18 09:41:04;;;;;;;3.70;2.67;;;17.40;47.40;;;;;;5026726;28;20468;-38
2022/04/18 09:43:42;;;;;;;4.17;2.90;;;17.50;47.90;;;;;;5019901;28;20426;-40
2022/04/18 09:46:09;;;;;;;8.23;2.73;;;17.50;50.20;;;;;;5027561;28;20427;-38
2022/04/18 09:48:35;;;;;;;3.17;2.70;;;17.70;51.90;;;;;;5026270;28;21112;-37
2022/04/18 09:51:08;;;;;;;3.23;2.60;;;17.70;47.70;;;;;;5023700;28;20440;-40
2022/04/18 09:53:34;;;;;;;2.47;2.27;;;17.80;47.60;;;;;;5028247;28;20186;-37
2022/04/18 09:56:00;;;;;;;3.10;2.80;;;18.00;47.30;;;;;;5025317;28;20474;-38
2022/04/18 09:58:26;;;;;;;4.10;2.97;;;18.20;47.70;;;;;;5023822;28;20478;-38
2022/04/18 10:00:52;;;;;;;3.53;2.80;;;18.30;46.30;;;;;;5027941;28;21223;-38
2022/04/18 10:03:19;;;;;;;5.20;3.00;;;18.40;46.70;;;;;;5028639;28;20721;-41
2022/04/18 10:05:47;;;;;;;3.27;2.50;;;18.40;46.90;;;;;;5018158;28;20464;-37
2022/04/18 10:08:14;;;;;;;4.00;3.60;;;18.40;46.30;;;;;;5020672;28;20446;-41
2022/04/18 10:10:40;;;;;;;3.50;3.07;;;18.50;48.40;;;;;;5025975;28;21065;-37
2022/04/18 10:13:07;;;;;;;6.07;3.63;;;18.50;46.60;;;;;;5022695;28;20444;-40
2022/04/18 10:15:38;;;;;;;3.10;2.70;;;18.40;45.50;;;;;;5028446;28;20190;-40
2022/04/18 10:18:06;;;;;;;3.80;3.43;;;18.40;46.70;;;;;;5028403;28;20524;-41
2022/04/18 10:20:53;;;;;;;3.53;3.17;;;18.50;48.70;;;;;;5017898;28;21015;-40
2022/04/18 10:23:22;;;;;;;5.30;3.40;;;18.70;48.30;;;;;;5026675;28;20413;-40
2022/04/18 10:26:05;;;;;;;5.23;3.17;;;18.90;46.10;;;;;;5039532;28;20420;-41
2022/04/18 10:28:36;;;;;;;4.00;3.60;;;18.90;46.20;;;;;;5022609;28;21114;-39
2022/04/18 10:31:09;;;;;;;4.43;3.33;;;19.00;47.30;;;;;;5027893;28;20444;-39
2022/04/18 10:33:35;;;;;;;3.50;3.10;;;19.00;48.80;;;;;;5027960;28;20907;-40
2022/04/18 10:36:03;;;;;;;3.43;3.13;;;19.20;48.80;;;;;;5020227;28;20444;-38
2022/04/18 10:38:33;;;;;;;3.30;2.93;;;19.20;47.40;;;;;;5027976;28;20425;-41
2022/04/18 10:41:17;;;;;;;3.70;3.23;;;19.30;46.60;;;;;;5027440;28;20472;-39
2022/04/18 10:44:00;;;;;;;4.27;3.70;;;19.30;45.40;;;;;;5028133;28;20507;-38
2022/04/18 10:46:26;;;;;;;4.23;2.77;;;19.20;45.60;;;;;;5043202;28;20511;-40
2022/04/18 10:48:58;;;;;;;3.50;3.20;;;19.20;46.80;;;;;;5028083;28;20447;-41
2022/04/18 10:51:29;;;;;;;5.20;3.50;;;19.20;45.70;;;;;;5015187;28;20548;-38
2022/04/18 10:54:19;;;;;;;3.37;3.07;;;18.80;44.70;;;;;;5026077;28;20420;-41
2022/04/18 10:57:01;;;;;;;4.57;3.27;;;18.60;47.80;;;;;;5022646;28;20948;-40
2022/04/18 10:59:30;;;;;;;5.20;3.47;;;18.80;48.10;;;;;;5027894;28;20455;-39
2022/04/18 11:01:57;;;;;;;4.97;3.63;;;18.90;48.20;;;;;;5027534;28;20441;-41
2022/04/18 11:04:25;;;;;;;3.17;2.67;;;19.10;48.60;;;;;;5026507;28;20430;-38
2022/04/18 11:06:57;;;;;;;4.27;3.37;;;19.30;48.60;;;;;;5016029;28;20449;-37
2022/04/18 11:09:24;;;;;;;4.80;3.33;;;19.50;48.20;;;;;;5025727;28;20920;-36
2022/04/18 11:12:19;;;;;;;3.53;3.20;;;19.50;46.80;;;;;;5032779;28;20471;-41
2022/04/18 11:14:51;;;;;;;3.80;3.40;;;19.70;46.50;;;;;;5025840;28;20788;-40
2022/04/18 11:17:36;;;;;;;5.27;3.07;;;19.80;47.90;;;;;;5031241;28;20880;-42
2022/04/18 11:20:26;;;;;;;5.80;3.70;;;19.90;46.60;;;;;;5030496;28;20959;-39
2022/04/18 11:23:18;;;;;;;6.57;3.13;;;20.00;46.30;;;;;;5023063;28;20833;-38
2022/04/18 11:26:03;;;;;;;4.07;3.67;;;20.00;47.10;;;;;;5024127;28;20431;-36
2022/04/18 11:28:36;;;;;;;3.80;3.20;;;20.20;46.90;;;;;;5025538;28;20459;-40
2022/04/18 11:31:09;;;;;;;3.70;2.73;;;20.10;44.20;;;;;;5024503;28;20421;-41
2022/04/18 11:33:43;;;;;;;5.23;3.23;;;20.20;44.90;;;;;;5026473;28;20482;-41
2022/04/18 11:36:10;;;;;;;3.17;2.93;;;20.20;44.00;;;;;;5024595;28;20500;-38
2022/04/18 11:38:36;;;;;;;4.83;3.37;;;20.20;44.10;;;;;;5023968;28;20432;-40
2022/04/18 11:41:09;;;;;;;4.90;3.40;;;20.20;45.80;;;;;;5029955;28;20477;-41
2022/04/18 11:43:35;;;;;;;3.60;3.30;;;20.00;44.00;;;;;;5030016;28;20239;-41
2022/04/18 11:46:09;;;;;;;4.87;3.20;;;20.00;44.80;;;;;;5030203;28;20421;-40
2022/04/18 11:48:35;;;;;;;3.50;3.20;;;20.20;46.80;;;;;;5030833;28;20178;-40
2022/04/18 11:51:02;;;;;;;3.37;3.10;;;20.20;45.00;;;;;;5024429;28;20441;-39
2022/04/18 11:53:35;;;;;;;3.37;2.90;;;20.30;43.60;;;;;;5026709;28;20421;-35
2022/04/18 11:56:07;;;;;;;3.73;3.43;;;20.30;45.10;;;;;;5031187;28;20425;-38
2022/04/18 11:58:39;;;;;;;4.67;2.97;;;20.30;44.50;;;;;;5030772;28;20488;-41
2022/04/18 12:06:47;;;;;;;3.77;3.47;;;20.20;43.20;;;;;;5019567;28;20485;-38
2022/04/18 12:09:22;;;;;;;5.43;3.50;;;20.20;45.40;;;;;;5020278;28;20464;-39
2022/04/18 12:11:48;;;;;;;3.43;3.10;;;20.20;45.90;;;;;;5030527;28;20487;-40
2022/04/18 12:14:14;;;;;;;3.30;3.00;;;20.20;47.00;;;;;;5029810;28;20417;-41
2022/04/18 12:16:41;;;;;;;4.27;3.13;;;20.30;46.00;;;;;;5031010;28;20429;-40
2022/04/18 12:19:15;;;;;;;5.17;3.17;;;20.40;45.30;;;;;;5029744;28;20739;-41
2022/04/18 12:21:42;;;;;;;5.37;3.50;;;20.40;45.80;;;;;;5021651;28;20464;-39
2022/04/18 12:24:11;;;;;;;4.90;3.60;;;20.50;47.50;;;;;;5030477;28;20434;-40
2022/04/18 12:26:38;;;;;;;3.43;2.90;;;20.50;44.60;;;;;;5027251;28;20413;-40
2022/04/18 12:29:10;;;;;;;3.60;3.30;;;20.40;42.30;;;;;;5029636;28;20448;-39
2022/04/18 12:31:40;;;;;;;3.50;3.20;;;20.50;43.20;;;;;;5030291;28;20461;-41
2022/04/18 12:34:06;;;;;;;3.70;3.40;;;20.50;44.70;;;;;;5030975;28;20524;-41
2022/04/18 12:36:36;;;;;;;3.93;3.20;;;20.60;45.50;;;;;;5022716;28;20529;-38
2022/04/18 12:39:03;;;;;;;4.00;3.37;;;20.50;45.90;;;;;;5028953;28;20425;-38
2022/04/18 12:41:29;;;;;;;4.40;3.87;;;20.60;45.70;;;;;;5030379;28;20471;-36
2022/04/18 12:43:55;;;;;;;3.60;3.30;;;20.60;45.20;;;;;;5032491;28;20433;-40
2022/04/18 12:46:28;;;;;;;3.60;3.30;;;20.70;46.30;;;;;;5029089;28;20491;-39
2022/04/18 12:48:55;;;;;;;4.50;3.40;;;20.70;43.50;;;;;;5029345;28;20421;-35
2022/04/18 12:51:38;;;;;;;3.40;3.10;;;20.70;45.00;;;;;;5025955;28;20433;-39
2022/04/18 12:54:24;;;;;;;5.10;3.40;;;20.60;42.30;;;;;;5028786;28;20429;-37
2022/04/18 12:56:51;;;;;;;3.77;3.47;;;20.60;45.10;;;;;;5030210;28;20504;-38
2022/04/18 12:59:24;;;;;;;4.50;3.20;;;20.60;45.60;;;;;;5028962;28;20440;-36
2022/04/18 13:01:50;;;;;;;5.70;3.37;;;20.70;46.30;;;;;;5028932;28;20476;-38
2022/04/18 13:04:23;;;;;;;4.00;3.60;;;20.70;45.80;;;;;;5028802;28;20425;-36
2022/04/18 13:07:04;;;;;;;3.33;2.97;;;20.80;45.80;;;;;;5018907;28;20180;-38
2022/04/18 13:09:31;;;;;;;3.50;3.20;;;20.90;47.40;;;;;;5027568;28;20417;-35
2022/04/18 13:12:08;;;;;;;3.40;3.10;;;21.00;46.10;;;;;;5030405;28;20429;-36
2022/04/18 13:14:54;;;;;;;4.13;3.70;;;21.00;44.50;;;;;;5030098;28;20798;-35